sensor_id;sensor_type;location;lat;lon;timestamp;temperature;humidity
20398;DHT22;10358;49.590;11.030;2022-12-07T00:02:01;3.00;99.90
20398;DHT22;10358;49.590;11.030;2022-12-07T00:04:27;3.00;99.90
20398;DHT22;10358;49.590;11.030;2022-12-07T00:06:53;2.90;99.90
20398;DHT22;10358;49.590;11.030;2022-12-07T00:09:19;2.90;99.90
20398;DHT22;10358;49.590;11.030;2022-12-07T00:11:47;2.90;99.90
20398;DHT22;10358;49.590;11.030;2022-12-07T00:14:14;2.90;99.90
20398;DHT22;10358;49.590;11.030;2022-12-07T00:16:40;2.90;99.90
20398;DHT22;10358;49.590;11.030;2022-12-07T00:19:06;2.90;99.90
20398;DHT22;10358;49.590;11.030;2022-12-07T00:21:34;2.90;99.90
20398;DHT22;10358;49.590;11.030;2022-12-07T00:24:00;2.90;99.90
20398;DHT22;10358;49.590;11.030;2022-12-07T00:26:28;2.90;99.90
20398;DHT22;10358;49.590;11.030;2022-12-07T00:28:59;2.90;99.90
20398;DHT22;10358;49.590;11.030;2022-12-07T00:31:29;2.90;99.90
20398;DHT22;10358;49.590;11.030;2022-12-07T00:33:55;2.90;99.90
20398;DHT22;10358;49.590;11.030;2022-12-07T00:36:22;2.90;99.90
20398;DHT22;10358;49.590;11.030;2022-12-07T00:38:48;2.90;99.90
20398;DHT22;10358;49.590;11.030;2022-12-07T00:41:16;2.90;99.90
20398;DHT22;10358;49.590;11.030;2022-12-07T00:43:42;2.90;99.90
20398;DHT22;10358;49.590;11.030;2022-12-07T00:46:09;2.90;99.90
20398;DHT22;10358;49.590;11.030;2022-12-07T00:48:35;2.80;99.90
20398;DHT22;10358;49.590;11.030;2022-12-07T00:51:00;2.90;99.90
20398;DHT22;10358;49.590;11.030;2022-12-07T00:53:27;2.90;99.90
20398;DHT22;10358;49.590;11.030;2022-12-07T00:55:52;2.90;99.90
20398;DHT22;10358;49.590;11.030;2022-12-07T00:58:19;2.80;99.90
20398;DHT22;10358;49.590;11.030;2022-12-07T01:00:45;2.80;99.90
20398;DHT22;10358;49.590;11.030;2022-12-07T01:03:12;2.80;99.90
20398;DHT22;10358;49.590;11.030;2022-12-07T01:05:38;2.80;99.90
20398;DHT22;10358;49.590;11.030;2022-12-07T01:08:05;2.80;99.90
20398;DHT22;10358;49.590;11.030;2022-12-07T01:10:31;2.80;99.90
20398;DHT22;10358;49.590;11.030;2022-12-07T01:12:57;2.80;99.90
20398;DHT22;10358;49.590;11.030;2022-12-07T01:15:23;2.80;99.90
20398;DHT22;10358;49.590;11.030;2022-12-07T01:17:49;2.80;99.90
20398;DHT22;10358;49.590;11.030;2022-12-07T01:20:14;2.80;99.90
20398;DHT22;10358;49.590;11.030;2022-12-07T01:22:42;2.80;99.90
20398;DHT22;10358;49.590;11.030;2022-12-07T01:25:09;2.80;99.90
20398;DHT22;10358;49.590;11.030;2022-12-07T01:27:36;2.80;99.90
20398;DHT22;10358;49.590;11.030;2022-12-07T01:30:04;2.80;99.90
20398;DHT22;10358;49.590;11.030;2022-12-07T01:32:29;2.80;99.90
20398;DHT22;10358;49.590;11.030;2022-12-07T01:34:55;2.80;99.90
20398;DHT22;10358;49.590;11.030;2022-12-07T01:37:21;2.80;99.90
20398;DHT22;10358;49.590;11.030;2022-12-07T01:39:49;2.80;99.90
20398;DHT22;10358;49.590;11.030;2022-12-07T01:42:15;2.80;99.90
20398;DHT22;10358;49.590;11.030;2022-12-07T01:47:47;2.80;99.90
20398;DHT22;10358;49.590;11.030;2022-12-07T01:50:15;2.80;99.90
20398;DHT22;10358;49.590;11.030;2022-12-07T01:52:42;2.80;99.90
20398;DHT22;10358;49.590;11.030;2022-12-07T01:55:12;2.80;99.90
20398;DHT22;10358;49.590;11.030;2022-12-07T01:57:41;2.80;99.90
20398;DHT22;10358;49.590;11.030;2022-12-07T02:00:09;2.70;99.90
20398;DHT22;10358;49.590;11.030;2022-12-07T02:02:39;2.70;99.90
20398;DHT22;10358;49.590;11.030;2022-12-07T02:05:07;2.70;99.90
20398;DHT22;10358;49.590;11.030;2022-12-07T02:07:34;2.70;99.90
20398;DHT22;10358;49.590;11.030;2022-12-07T02:10:19;2.70;99.90
20398;DHT22;10358;49.590;11.030;2022-12-07T02:12:47;2.70;99.90
20398;DHT22;10358;49.590;11.030;2022-12-07T02:15:14;2.70;99.90
20398;DHT22;10358;49.590;11.030;2022-12-07T02:23:19;2.70;99.90
20398;DHT22;10358;49.590;11.030;2022-12-07T02:28:36;2.70;99.90
20398;DHT22;10358;49.590;11.030;2022-12-07T02:31:08;2.70;99.90
20398;DHT22;10358;49.590;11.030;2022-12-07T02:33:45;2.70;99.90
20398;DHT22;10358;49.590;11.030;2022-12-07T02:36:26;2.70;99.90
20398;DHT22;10358;49.590;11.030;2022-12-07T02:39:00;2.70;99.90
20398;DHT22;10358;49.590;11.030;2022-12-07T02:43:58;2.60;99.90
20398;DHT22;10358;49.590;11.030;2022-12-07T02:46:34;2.50;99.90
20398;DHT22;10358;49.590;11.030;2022-12-07T02:49:02;2.50;99.90
20398;DHT22;10358;49.590;11.030;2022-12-07T02:51:31;2.50;99.90
20398;DHT22;10358;49.590;11.030;2022-12-07T02:53:58;2.50;99.90
20398;DHT22;10358;49.590;11.030;2022-12-07T02:59:20;2.50;99.90
20398;DHT22;10358;49.590;11.030;2022-12-07T03:02:21;2.50;99.90
20398;DHT22;10358;49.590;11.030;2022-12-07T03:15:39;2.50;99.90
20398;DHT22;10358;49.590;11.030;2022-12-07T03:18:06;2.50;99.90
20398;DHT22;10358;49.590;11.030;2022-12-07T03:20:35;2.50;99.90
20398;DHT22;10358;49.590;11.030;2022-12-07T03:23:05;2.50;99.90
20398;DHT22;10358;49.590;11.030;2022-12-07T03:25:34;2.50;99.90
20398;DHT22;10358;49.590;11.030;2022-12-07T03:28:04;2.50;99.90
20398;DHT22;10358;49.590;11.030;2022-12-07T03:33:18;2.50;99.90
20398;DHT22;10358;49.590;11.030;2022-12-07T03:35:58;2.50;99.90
20398;DHT22;10358;49.590;11.030;2022-12-07T03:38:33;2.40;99.90
20398;DHT22;10358;49.590;11.030;2022-12-07T03:41:09;2.30;99.90
20398;DHT22;10358;49.590;11.030;2022-12-07T03:43:37;2.30;99.90
20398;DHT22;10358;49.590;11.030;2022-12-07T03:46:11;2.20;99.90
20398;DHT22;10358;49.590;11.030;2022-12-07T03:51:46;2.10;99.90
20398;DHT22;10358;49.590;11.030;2022-12-07T03:56:46;2.00;99.90
20398;DHT22;10358;49.590;11.030;2022-12-07T03:59:13;2.00;99.90
20398;DHT22;10358;49.590;11.030;2022-12-07T04:01:42;2.00;99.90
20398;DHT22;10358;49.590;11.030;2022-12-07T04:04:08;2.00;99.90
20398;DHT22;10358;49.590;11.030;2022-12-07T04:06:33;2.00;99.90
20398;DHT22;10358;49.590;11.030;2022-12-07T04:08:59;2.00;99.90
20398;DHT22;10358;49.590;11.030;2022-12-07T04:11:25;2.00;99.90
20398;DHT22;10358;49.590;11.030;2022-12-07T04:13:50;2.00;99.90
20398;DHT22;10358;49.590;11.030;2022-12-07T04:16:34;2.00;99.90
20398;DHT22;10358;49.590;11.030;2022-12-07T04:19:00;2.10;99.90
20398;DHT22;10358;49.590;11.030;2022-12-07T04:21:25;2.10;99.90
20398;DHT22;10358;49.590;11.030;2022-12-07T04:23:51;2.10;99.90
20398;DHT22;10358;49.590;11.030;2022-12-07T04:26:16;2.10;99.90
20398;DHT22;10358;49.590;11.030;2022-12-07T04:28:42;2.10;99.90
20398;DHT22;10358;49.590;11.030;2022-12-07T04:31:07;2.10;99.90
20398;DHT22;10358;49.590;11.030;2022-12-07T04:33:33;2.10;99.90
20398;DHT22;10358;49.590;11.030;2022-12-07T04:36:00;2.10;99.90
20398;DHT22;10358;49.590;11.030;2022-12-07T04:38:25;2.10;99.90
20398;DHT22;10358;49.590;11.030;2022-12-07T04:40:51;2.10;99.90
20398;DHT22;10358;49.590;11.030;2022-12-07T04:43:16;2.10;99.90
20398;DHT22;10358;49.590;11.030;2022-12-07T04:45:46;2.10;99.90
20398;DHT22;10358;49.590;11.030;2022-12-07T04:48:12;2.10;99.90
20398;DHT22;10358;49.590;11.030;2022-12-07T04:50:38;2.10;99.90
20398;DHT22;10358;49.590;11.030;2022-12-07T04:53:04;2.20;99.90
20398;DHT22;10358;49.590;11.030;2022-12-07T04:55:29;2.20;99.90
20398;DHT22;10358;49.590;11.030;2022-12-07T04:57:55;2.20;99.90
20398;DHT22;10358;49.590;11.030;2022-12-07T05:00:20;2.20;99.90
20398;DHT22;10358;49.590;11.030;2022-12-07T05:02:46;2.20;99.90
20398;DHT22;10358;49.590;11.030;2022-12-07T05:05:11;2.20;99.90
20398;DHT22;10358;49.590;11.030;2022-12-07T05:07:37;2.20;99.90
20398;DHT22;10358;49.590;11.030;2022-12-07T05:10:03;2.20;99.90
20398;DHT22;10358;49.590;11.030;2022-12-07T05:12:28;2.20;99.90
20398;DHT22;10358;49.590;11.030;2022-12-07T05:14:54;2.30;99.90
20398;DHT22;10358;49.590;11.030;2022-12-07T05:17:19;2.20;99.90
20398;DHT22;10358;49.590;11.030;2022-12-07T05:19:45;2.30;99.90
20398;DHT22;10358;49.590;11.030;2022-12-07T05:22:10;2.30;99.90
20398;DHT22;10358;49.590;11.030;2022-12-07T05:24:36;2.20;99.90
20398;DHT22;10358;49.590;11.030;2022-12-07T05:27:02;2.30;99.90
20398;DHT22;10358;49.590;11.030;2022-12-07T05:29:27;2.30;99.90
20398;DHT22;10358;49.590;11.030;2022-12-07T05:31:53;2.30;99.90
20398;DHT22;10358;49.590;11.030;2022-12-07T05:34:18;2.30;99.90
20398;DHT22;10358;49.590;11.030;2022-12-07T05:36:44;2.30;99.90
20398;DHT22;10358;49.590;11.030;2022-12-07T05:39:10;2.30;99.90
20398;DHT22;10358;49.590;11.030;2022-12-07T05:41:35;2.30;99.90
20398;DHT22;10358;49.590;11.030;2022-12-07T05:44:20;2.30;99.90
20398;DHT22;10358;49.590;11.030;2022-12-07T05:46:45;2.30;99.90
20398;DHT22;10358;49.590;11.030;2022-12-07T05:49:11;2.30;99.90
20398;DHT22;10358;49.590;11.030;2022-12-07T05:51:36;2.30;99.90
20398;DHT22;10358;49.590;11.030;2022-12-07T05:54:02;2.30;99.90
20398;DHT22;10358;49.590;11.030;2022-12-07T05:56:28;2.40;99.90
20398;DHT22;10358;49.590;11.030;2022-12-07T05:58:54;2.30;99.90
20398;DHT22;10358;49.590;11.030;2022-12-07T06:01:38;2.30;99.90
20398;DHT22;10358;49.590;11.030;2022-12-07T06:04:03;2.30;99.90
20398;DHT22;10358;49.590;11.030;2022-12-07T06:06:29;2.30;99.90
20398;DHT22;10358;49.590;11.030;2022-12-07T06:08:54;2.30;99.90
20398;DHT22;10358;49.590;11.030;2022-12-07T06:11:20;2.40;99.90
20398;DHT22;10358;49.590;11.030;2022-12-07T06:14:04;2.40;99.90
20398;DHT22;10358;49.590;11.030;2022-12-07T06:16:30;2.40;99.90
20398;DHT22;10358;49.590;11.030;2022-12-07T06:18:55;2.40;99.90
20398;DHT22;10358;49.590;11.030;2022-12-07T06:21:21;2.40;99.90
20398;DHT22;10358;49.590;11.030;2022-12-07T06:23:46;2.40;99.90
20398;DHT22;10358;49.590;11.030;2022-12-07T06:26:13;2.50;99.90
20398;DHT22;10358;49.590;11.030;2022-12-07T06:28:39;2.50;99.90
20398;DHT22;10358;49.590;11.030;2022-12-07T06:31:04;2.50;99.90
20398;DHT22;10358;49.590;11.030;2022-12-07T06:33:30;2.50;99.90
20398;DHT22;10358;49.590;11.030;2022-12-07T06:35:55;2.50;99.90
20398;DHT22;10358;49.590;11.030;2022-12-07T06:38:21;2.50;99.90
20398;DHT22;10358;49.590;11.030;2022-12-07T06:40:47;2.50;99.90
20398;DHT22;10358;49.590;11.030;2022-12-07T06:43:13;2.50;99.90
20398;DHT22;10358;49.590;11.030;2022-12-07T06:45:39;2.50;99.90
20398;DHT22;10358;49.590;11.030;2022-12-07T06:48:05;2.50;99.90
20398;DHT22;10358;49.590;11.030;2022-12-07T06:50:31;2.50;99.90
20398;DHT22;10358;49.590;11.030;2022-12-07T06:52:56;2.50;99.90
20398;DHT22;10358;49.590;11.030;2022-12-07T06:55:22;2.50;99.90
20398;DHT22;10358;49.590;11.030;2022-12-07T06:57:47;2.50;99.90
20398;DHT22;10358;49.590;11.030;2022-12-07T07:00:13;2.50;99.90
20398;DHT22;10358;49.590;11.030;2022-12-07T07:02:39;2.50;99.90
20398;DHT22;10358;49.590;11.030;2022-12-07T07:05:05;2.50;99.90
20398;DHT22;10358;49.590;11.030;2022-12-07T07:07:30;2.50;99.90
20398;DHT22;10358;49.590;11.030;2022-12-07T07:09:56;2.60;99.90
20398;DHT22;10358;49.590;11.030;2022-12-07T07:12:21;2.60;99.90
20398;DHT22;10358;49.590;11.030;2022-12-07T07:14:47;2.60;99.90
20398;DHT22;10358;49.590;11.030;2022-12-07T07:17:13;2.60;99.90
20398;DHT22;10358;49.590;11.030;2022-12-07T07:19:38;2.60;99.90
20398;DHT22;10358;49.590;11.030;2022-12-07T07:22:04;2.60;99.90
20398;DHT22;10358;49.590;11.030;2022-12-07T07:24:29;2.70;99.90
20398;DHT22;10358;49.590;11.030;2022-12-07T07:26:55;2.70;99.90
20398;DHT22;10358;49.590;11.030;2022-12-07T07:29:20;2.70;99.90
20398;DHT22;10358;49.590;11.030;2022-12-07T07:31:46;2.70;99.90
20398;DHT22;10358;49.590;11.030;2022-12-07T07:34:12;2.70;99.90
20398;DHT22;10358;49.590;11.030;2022-12-07T07:36:37;2.70;99.90
20398;DHT22;10358;49.590;11.030;2022-12-07T07:39:21;2.80;99.90
20398;DHT22;10358;49.590;11.030;2022-12-07T07:41:46;2.80;99.90
20398;DHT22;10358;49.590;11.030;2022-12-07T07:44:12;2.80;99.90
20398;DHT22;10358;49.590;11.030;2022-12-07T07:46:38;2.80;99.90
20398;DHT22;10358;49.590;11.030;2022-12-07T07:49:03;2.80;99.90
20398;DHT22;10358;49.590;11.030;2022-12-07T07:51:29;2.80;99.90
20398;DHT22;10358;49.590;11.030;2022-12-07T07:53:54;2.90;99.90
20398;DHT22;10358;49.590;11.030;2022-12-07T07:56:20;2.80;99.90
20398;DHT22;10358;49.590;11.030;2022-12-07T07:58:45;2.90;99.90
20398;DHT22;10358;49.590;11.030;2022-12-07T08:01:11;2.90;99.90
20398;DHT22;10358;49.590;11.030;2022-12-07T08:03:38;2.90;99.90
20398;DHT22;10358;49.590;11.030;2022-12-07T08:06:04;2.90;99.90
20398;DHT22;10358;49.590;11.030;2022-12-07T08:08:30;2.90;99.90
20398;DHT22;10358;49.590;11.030;2022-12-07T08:10:56;2.90;99.90
20398;DHT22;10358;49.590;11.030;2022-12-07T08:13:21;2.90;99.90
20398;DHT22;10358;49.590;11.030;2022-12-07T08:15:47;2.90;99.90
20398;DHT22;10358;49.590;11.030;2022-12-07T08:18:14;2.90;99.90
20398;DHT22;10358;49.590;11.030;2022-12-07T08:20:41;2.90;99.90
20398;DHT22;10358;49.590;11.030;2022-12-07T08:23:08;2.90;99.90
20398;DHT22;10358;49.590;11.030;2022-12-07T08:25:34;3.00;99.90
20398;DHT22;10358;49.590;11.030;2022-12-07T08:28:00;3.00;99.90
20398;DHT22;10358;49.590;11.030;2022-12-07T08:30:27;3.00;99.90
20398;DHT22;10358;49.590;11.030;2022-12-07T08:32:52;3.00;99.90
20398;DHT22;10358;49.590;11.030;2022-12-07T08:35:18;3.00;99.90
20398;DHT22;10358;49.590;11.030;2022-12-07T08:37:44;3.00;99.90
20398;DHT22;10358;49.590;11.030;2022-12-07T08:40:10;3.00;99.90
20398;DHT22;10358;49.590;11.030;2022-12-07T08:42:41;3.10;99.90
20398;DHT22;10358;49.590;11.030;2022-12-07T08:45:12;3.10;99.90
20398;DHT22;10358;49.590;11.030;2022-12-07T08:47:41;3.10;99.90
20398;DHT22;10358;49.590;11.030;2022-12-07T08:50:10;3.10;99.90
20398;DHT22;10358;49.590;11.030;2022-12-07T08:52:37;3.10;99.90
20398;DHT22;10358;49.590;11.030;2022-12-07T08:55:03;3.10;99.90
20398;DHT22;10358;49.590;11.030;2022-12-07T08:57:30;3.10;99.90
20398;DHT22;10358;49.590;11.030;2022-12-07T08:59:57;3.10;99.90
20398;DHT22;10358;49.590;11.030;2022-12-07T09:02:24;3.10;99.90
20398;DHT22;10358;49.590;11.030;2022-12-07T09:04:49;3.10;99.90
20398;DHT22;10358;49.590;11.030;2022-12-07T09:07:15;3.20;99.90
20398;DHT22;10358;49.590;11.030;2022-12-07T09:09:41;3.20;99.90
20398;DHT22;10358;49.590;11.030;2022-12-07T09:12:07;3.10;99.90
20398;DHT22;10358;49.590;11.030;2022-12-07T09:14:33;3.20;99.90
20398;DHT22;10358;49.590;11.030;2022-12-07T09:17:06;3.20;99.90
20398;DHT22;10358;49.590;11.030;2022-12-07T09:19:32;3.20;99.90
20398;DHT22;10358;49.590;11.030;2022-12-07T09:21:58;3.20;99.90
20398;DHT22;10358;49.590;11.030;2022-12-07T09:24:23;3.20;99.90
20398;DHT22;10358;49.590;11.030;2022-12-07T09:26:49;3.20;99.90
20398;DHT22;10358;49.590;11.030;2022-12-07T09:29:14;3.20;99.90
20398;DHT22;10358;49.590;11.030;2022-12-07T09:31:40;3.20;99.90
20398;DHT22;10358;49.590;11.030;2022-12-07T09:34:06;3.20;99.90
20398;DHT22;10358;49.590;11.030;2022-12-07T09:36:32;3.20;99.90
20398;DHT22;10358;49.590;11.030;2022-12-07T09:38:58;3.20;99.90
20398;DHT22;10358;49.590;11.030;2022-12-07T09:41:25;3.30;99.90
20398;DHT22;10358;49.590;11.030;2022-12-07T09:43:53;3.30;99.90
20398;DHT22;10358;49.590;11.030;2022-12-07T09:46:21;3.20;99.90
20398;DHT22;10358;49.590;11.030;2022-12-07T09:48:49;3.20;99.90
20398;DHT22;10358;49.590;11.030;2022-12-07T09:51:23;3.20;99.90
20398;DHT22;10358;49.590;11.030;2022-12-07T09:53:50;3.30;99.90
20398;DHT22;10358;49.590;11.030;2022-12-07T09:56:18;3.30;99.90
20398;DHT22;10358;49.590;11.030;2022-12-07T09:58:45;3.30;99.90
20398;DHT22;10358;49.590;11.030;2022-12-07T10:01:18;3.30;99.90
20398;DHT22;10358;49.590;11.030;2022-12-07T10:04:14;3.30;99.90
20398;DHT22;10358;49.590;11.030;2022-12-07T10:06:41;3.30;99.90
20398;DHT22;10358;49.590;11.030;2022-12-07T10:09:14;3.40;99.90
20398;DHT22;10358;49.590;11.030;2022-12-07T10:14:30;3.40;99.90
20398;DHT22;10358;49.590;11.030;2022-12-07T10:16:56;3.40;99.90
20398;DHT22;10358;49.590;11.030;2022-12-07T10:19:32;3.50;99.90
20398;DHT22;10358;49.590;11.030;2022-12-07T10:22:14;3.50;99.90
20398;DHT22;10358;49.590;11.030;2022-12-07T10:24:41;3.50;99.90
20398;DHT22;10358;49.590;11.030;2022-12-07T10:27:19;3.50;99.90
20398;DHT22;10358;49.590;11.030;2022-12-07T10:29:51;3.50;99.90
20398;DHT22;10358;49.590;11.030;2022-12-07T10:34:43;3.60;99.90
20398;DHT22;10358;49.590;11.030;2022-12-07T10:44:40;3.50;99.90
20398;DHT22;10358;49.590;11.030;2022-12-07T10:53:30;3.50;99.90
20398;DHT22;10358;49.590;11.030;2022-12-07T10:56:32;3.50;99.90
20398;DHT22;10358;49.590;11.030;2022-12-07T11:01:49;3.60;99.90
20398;DHT22;10358;49.590;11.030;2022-12-07T11:17:52;3.60;99.90
20398;DHT22;10358;49.590;11.030;2022-12-07T11:20:44;3.60;99.90
20398;DHT22;10358;49.590;11.030;2022-12-07T11:31:58;3.70;99.90
20398;DHT22;10358;49.590;11.030;2022-12-07T11:34:44;3.70;99.90
20398;DHT22;10358;49.590;11.030;2022-12-07T11:37:21;3.70;99.90
20398;DHT22;10358;49.590;11.030;2022-12-07T11:39:52;3.70;99.90
20398;DHT22;10358;49.590;11.030;2022-12-07T11:42:25;3.70;99.90
20398;DHT22;10358;49.590;11.030;2022-12-07T11:50:37;3.80;99.90
20398;DHT22;10358;49.590;11.030;2022-12-07T11:56:00;3.80;99.90
20398;DHT22;10358;49.590;11.030;2022-12-07T12:03:56;3.80;99.90
20398;DHT22;10358;49.590;11.030;2022-12-07T12:06:23;3.80;99.90
20398;DHT22;10358;49.590;11.030;2022-12-07T12:08:57;3.80;99.90
20398;DHT22;10358;49.590;11.030;2022-12-07T12:14:51;3.80;99.90
20398;DHT22;10358;49.590;11.030;2022-12-07T12:25:46;3.80;99.90
20398;DHT22;10358;49.590;11.030;2022-12-07T12:28:22;3.80;99.90
20398;DHT22;10358;49.590;11.030;2022-12-07T12:31:09;3.90;99.90
20398;DHT22;10358;49.590;11.030;2022-12-07T12:33:35;3.90;99.90
20398;DHT22;10358;49.590;11.030;2022-12-07T12:44:03;3.80;99.90
20398;DHT22;10358;49.590;11.030;2022-12-07T12:46:52;3.80;99.90
20398;DHT22;10358;49.590;11.030;2022-12-07T12:54:25;3.80;99.90
20398;DHT22;10358;49.590;11.030;2022-12-07T13:05:23;3.80;99.90
20398;DHT22;10358;49.590;11.030;2022-12-07T13:08:00;3.80;99.90
20398;DHT22;10358;49.590;11.030;2022-12-07T13:18:24;3.90;99.90
20398;DHT22;10358;49.590;11.030;2022-12-07T13:23:51;3.90;99.90
20398;DHT22;10358;49.590;11.030;2022-12-07T13:31:47;3.90;99.90
20398;DHT22;10358;49.590;11.030;2022-12-07T13:39:49;3.90;99.90
20398;DHT22;10358;49.590;11.030;2022-12-07T13:42:33;3.90;99.90
20398;DHT22;10358;49.590;11.030;2022-12-07T13:45:16;3.90;99.90
20398;DHT22;10358;49.590;11.030;2022-12-07T13:47:53;3.90;99.90
20398;DHT22;10358;49.590;11.030;2022-12-07T13:52:49;3.90;99.90
20398;DHT22;10358;49.590;11.030;2022-12-07T13:55:16;4.00;99.90
20398;DHT22;10358;49.590;11.030;2022-12-07T13:57:44;4.00;99.90
20398;DHT22;10358;49.590;11.030;2022-12-07T14:00:23;4.00;99.90
20398;DHT22;10358;49.590;11.030;2022-12-07T14:05:27;4.00;99.90
20398;DHT22;10358;49.590;11.030;2022-12-07T14:08:02;4.00;99.90
20398;DHT22;10358;49.590;11.030;2022-12-07T14:10:40;4.00;99.90
20398;DHT22;10358;49.590;11.030;2022-12-07T14:13:40;4.00;99.90
20398;DHT22;10358;49.590;11.030;2022-12-07T14:18:50;4.00;99.90
20398;DHT22;10358;49.590;11.030;2022-12-07T14:21:35;4.00;99.90
20398;DHT22;10358;49.590;11.030;2022-12-07T14:24:18;4.00;99.90
20398;DHT22;10358;49.590;11.030;2022-12-07T14:26:50;4.00;99.90
20398;DHT22;10358;49.590;11.030;2022-12-07T14:31:52;4.00;99.90
20398;DHT22;10358;49.590;11.030;2022-12-07T14:34:22;4.00;99.90
20398;DHT22;10358;49.590;11.030;2022-12-07T14:36:49;4.00;99.90
20398;DHT22;10358;49.590;11.030;2022-12-07T14:39:14;4.00;99.90
20398;DHT22;10358;49.590;11.030;2022-12-07T14:41:40;4.00;99.90
20398;DHT22;10358;49.590;11.030;2022-12-07T14:44:20;3.90;99.90
20398;DHT22;10358;49.590;11.030;2022-12-07T14:46:47;3.90;99.90
20398;DHT22;10358;49.590;11.030;2022-12-07T14:49:13;3.90;99.90
20398;DHT22;10358;49.590;11.030;2022-12-07T14:51:40;3.90;99.90
20398;DHT22;10358;49.590;11.030;2022-12-07T14:54:14;3.80;99.90
20398;DHT22;10358;49.590;11.030;2022-12-07T14:56:41;3.80;99.90
20398;DHT22;10358;49.590;11.030;2022-12-07T14:59:07;3.70;99.90
20398;DHT22;10358;49.590;11.030;2022-12-07T15:01:32;3.70;99.90
20398;DHT22;10358;49.590;11.030;2022-12-07T15:03:58;3.70;99.90
20398;DHT22;10358;49.590;11.030;2022-12-07T15:06:24;3.60;99.90
20398;DHT22;10358;49.590;11.030;2022-12-07T15:08:49;3.60;99.90
20398;DHT22;10358;49.590;11.030;2022-12-07T15:11:16;3.60;99.90
20398;DHT22;10358;49.590;11.030;2022-12-07T15:13:42;3.60;99.90
20398;DHT22;10358;49.590;11.030;2022-12-07T15:16:26;3.50;99.90
20398;DHT22;10358;49.590;11.030;2022-12-07T15:18:52;3.50;99.90
20398;DHT22;10358;49.590;11.030;2022-12-07T15:21:17;3.50;99.90
20398;DHT22;10358;49.590;11.030;2022-12-07T15:23:43;3.40;99.90
20398;DHT22;10358;49.590;11.030;2022-12-07T15:26:11;3.40;99.90
20398;DHT22;10358;49.590;11.030;2022-12-07T15:28:37;3.40;99.90
20398;DHT22;10358;49.590;11.030;2022-12-07T15:31:03;3.40;99.90
20398;DHT22;10358;49.590;11.030;2022-12-07T15:33:28;3.40;99.90
20398;DHT22;10358;49.590;11.030;2022-12-07T15:35:54;3.40;99.90
20398;DHT22;10358;49.590;11.030;2022-12-07T15:38:19;3.30;99.90
20398;DHT22;10358;49.590;11.030;2022-12-07T15:40:48;3.30;99.90
20398;DHT22;10358;49.590;11.030;2022-12-07T15:43:14;3.30;99.90
20398;DHT22;10358;49.590;11.030;2022-12-07T15:45:58;3.30;99.90
20398;DHT22;10358;49.590;11.030;2022-12-07T15:48:24;3.30;99.90
20398;DHT22;10358;49.590;11.030;2022-12-07T15:50:50;3.30;99.90
20398;DHT22;10358;49.590;11.030;2022-12-07T15:53:15;3.30;99.90
20398;DHT22;10358;49.590;11.030;2022-12-07T15:55:41;3.20;99.90
20398;DHT22;10358;49.590;11.030;2022-12-07T15:58:07;3.30;99.90
20398;DHT22;10358;49.590;11.030;2022-12-07T16:00:32;3.20;99.90
20398;DHT22;10358;49.590;11.030;2022-12-07T16:02:58;3.20;99.90
20398;DHT22;10358;49.590;11.030;2022-12-07T16:05:24;3.20;99.90
20398;DHT22;10358;49.590;11.030;2022-12-07T16:07:49;3.20;99.90
20398;DHT22;10358;49.590;11.030;2022-12-07T16:10:16;3.20;99.90
20398;DHT22;10358;49.590;11.030;2022-12-07T16:12:42;3.20;99.90
20398;DHT22;10358;49.590;11.030;2022-12-07T16:15:08;3.10;99.90
20398;DHT22;10358;49.590;11.030;2022-12-07T16:17:33;3.10;99.90
20398;DHT22;10358;49.590;11.030;2022-12-07T16:19:59;3.10;99.90
20398;DHT22;10358;49.590;11.030;2022-12-07T16:22:25;3.10;99.90
20398;DHT22;10358;49.590;11.030;2022-12-07T16:24:50;3.10;99.90
20398;DHT22;10358;49.590;11.030;2022-12-07T16:27:16;3.10;99.90
20398;DHT22;10358;49.590;11.030;2022-12-07T16:29:41;3.10;99.90
20398;DHT22;10358;49.590;11.030;2022-12-07T16:32:07;3.10;99.90
20398;DHT22;10358;49.590;11.030;2022-12-07T16:34:32;3.10;99.90
20398;DHT22;10358;49.590;11.030;2022-12-07T16:36:58;3.10;99.90
20398;DHT22;10358;49.590;11.030;2022-12-07T16:39:23;3.10;99.90
20398;DHT22;10358;49.590;11.030;2022-12-07T16:41:50;3.10;99.90
20398;DHT22;10358;49.590;11.030;2022-12-07T16:44:15;3.20;99.90
20398;DHT22;10358;49.590;11.030;2022-12-07T16:46:41;3.20;99.90
20398;DHT22;10358;49.590;11.030;2022-12-07T16:49:13;3.20;99.90
20398;DHT22;10358;49.590;11.030;2022-12-07T16:51:39;3.20;99.90
20398;DHT22;10358;49.590;11.030;2022-12-07T16:54:05;3.20;99.90
20398;DHT22;10358;49.590;11.030;2022-12-07T16:56:30;3.20;99.90
20398;DHT22;10358;49.590;11.030;2022-12-07T16:58:58;3.20;99.90
20398;DHT22;10358;49.590;11.030;2022-12-07T17:01:23;3.20;99.90
20398;DHT22;10358;49.590;11.030;2022-12-07T17:03:50;3.20;99.90
20398;DHT22;10358;49.590;11.030;2022-12-07T17:06:18;3.20;99.90
20398;DHT22;10358;49.590;11.030;2022-12-07T17:08:44;3.20;99.90
20398;DHT22;10358;49.590;11.030;2022-12-07T17:11:15;3.20;99.90
20398;DHT22;10358;49.590;11.030;2022-12-07T17:13:41;3.20;99.90
20398;DHT22;10358;49.590;11.030;2022-12-07T17:16:25;3.20;99.90
20398;DHT22;10358;49.590;11.030;2022-12-07T17:18:51;3.20;99.90
20398;DHT22;10358;49.590;11.030;2022-12-07T17:21:17;3.20;99.90
20398;DHT22;10358;49.590;11.030;2022-12-07T17:23:43;3.20;99.90
20398;DHT22;10358;49.590;11.030;2022-12-07T17:26:11;3.10;99.90
20398;DHT22;10358;49.590;11.030;2022-12-07T17:28:37;3.10;99.90
20398;DHT22;10358;49.590;11.030;2022-12-07T17:31:10;3.10;99.90
20398;DHT22;10358;49.590;11.030;2022-12-07T17:33:36;3.10;99.90
20398;DHT22;10358;49.590;11.030;2022-12-07T17:36:09;3.10;99.90
20398;DHT22;10358;49.590;11.030;2022-12-07T17:38:35;3.10;99.90
20398;DHT22;10358;49.590;11.030;2022-12-07T17:41:11;3.10;99.90
20398;DHT22;10358;49.590;11.030;2022-12-07T17:43:37;3.00;99.90
20398;DHT22;10358;49.590;11.030;2022-12-07T17:46:08;3.00;99.90
20398;DHT22;10358;49.590;11.030;2022-12-07T17:48:34;3.00;99.90
20398;DHT22;10358;49.590;11.030;2022-12-07T17:51:00;3.00;99.90
20398;DHT22;10358;49.590;11.030;2022-12-07T17:53:48;3.00;99.90
20398;DHT22;10358;49.590;11.030;2022-12-07T17:56:14;3.00;99.90
20398;DHT22;10358;49.590;11.030;2022-12-07T17:58:40;3.00;99.90
20398;DHT22;10358;49.590;11.030;2022-12-07T18:01:09;3.00;99.90
20398;DHT22;10358;49.590;11.030;2022-12-07T18:03:35;3.00;99.90
20398;DHT22;10358;49.590;11.030;2022-12-07T18:06:01;3.00;99.90
20398;DHT22;10358;49.590;11.030;2022-12-07T18:08:26;3.00;99.90
20398;DHT22;10358;49.590;11.030;2022-12-07T18:10:59;3.00;99.90
20398;DHT22;10358;49.590;11.030;2022-12-07T18:13:24;3.00;99.90
20398;DHT22;10358;49.590;11.030;2022-12-07T18:16:14;3.10;99.90
20398;DHT22;10358;49.590;11.030;2022-12-07T18:18:42;3.10;99.90